Metar z połowy godziny Komunikat METAR ze strony awiacja.imgw.pl Metar G30 EPTM METAR EPTM 240430Z 00000KT 9999 BKN050 BKN070 10/09 Q1014 RMK 104 092 7/5=